createdAt,value
2019-05-02T00:01:30.930Z,13.30
2019-05-02T00:04:12.353Z,12.80
2019-05-02T00:07:14.468Z,12.60
2019-05-02T00:09:55.757Z,13.00
2019-05-02T00:12:36.685Z,13.00
2019-05-02T00:15:17.709Z,12.80
2019-05-02T00:18:01.407Z,12.90
2019-05-02T00:20:41.402Z,12.50
2019-05-02T00:23:23.040Z,12.40
2019-05-02T00:26:04.585Z,12.50
2019-05-02T00:28:48.078Z,12.50
2019-05-02T00:31:27.893Z,12.60
2019-05-02T00:34:08.678Z,12.70
2019-05-02T00:36:49.663Z,12.50
2019-05-02T00:39:30.110Z,12.50
2019-05-02T00:42:12.722Z,12.60
2019-05-02T00:44:53.808Z,13.40
2019-05-02T00:47:42.206Z,12.80
2019-05-02T00:50:23.829Z,12.70
2019-05-02T00:53:07.152Z,12.40
2019-05-02T00:55:47.761Z,12.80
2019-05-02T00:58:31.870Z,12.50
2019-05-02T01:01:31.123Z,12.80
2019-05-02T01:04:13.639Z,12.50
2019-05-02T01:06:54.871Z,12.70
2019-05-02T01:09:35.637Z,12.40
2019-05-02T01:12:26.192Z,12.40
2019-05-02T01:15:03.343Z,12.20
2019-05-02T01:17:41.602Z,12.40
2019-05-02T01:20:27.345Z,12.50
2019-05-02T01:23:05.067Z,12.70
2019-05-02T01:25:47.482Z,12.60
2019-05-02T01:28:49.188Z,12.30
2019-05-02T01:31:49.934Z,12.40
2019-05-02T01:34:35.719Z,12.50
2019-05-02T01:37:21.961Z,12.50
2019-05-02T01:40:02.570Z,12.60
2019-05-02T01:42:44.560Z,12.90
2019-05-02T01:45:25.461Z,12.50
2019-05-02T01:48:09.749Z,12.80
2019-05-02T01:50:49.105Z,12.60
2019-05-02T01:53:34.202Z,12.50
2019-05-02T01:56:13.114Z,12.60
2019-05-02T01:58:57.765Z,12.50
2019-05-02T02:01:35.481Z,12.40
2019-05-02T02:04:20.598Z,12.80
2019-05-02T02:06:58.633Z,12.70
2019-05-02T02:09:43.913Z,12.40
2019-05-02T02:12:22.628Z,12.60
2019-05-02T02:15:03.093Z,12.50
2019-05-02T02:17:46.846Z,12.70
2019-05-02T02:20:27.307Z,12.50
2019-05-02T02:23:27.086Z,12.40
2019-05-02T02:29:14.871Z,12.50
2019-05-02T02:31:55.465Z,12.50
2019-05-02T02:34:35.890Z,12.50
2019-05-02T02:37:16.802Z,12.50
2019-05-02T02:39:57.317Z,12.50
2019-05-02T02:42:38.048Z,12.30
2019-05-02T02:45:20.494Z,12.30
2019-05-02T02:48:02.581Z,12.40
2019-05-02T02:50:45.186Z,12.50
2019-05-02T02:53:31.859Z,12.00
2019-05-02T02:56:12.237Z,12.10
2019-05-02T02:58:52.743Z,12.30
2019-05-02T03:01:33.610Z,12.50
2019-05-02T03:04:14.387Z,12.00
2019-05-02T03:06:55.296Z,12.10
2019-05-02T03:09:36.000Z,12.10
2019-05-02T03:12:21.315Z,12.50
2019-05-02T03:15:03.378Z,12.40
2019-05-02T03:17:44.382Z,12.30
2019-05-02T03:20:25.327Z,12.40
2019-05-02T03:23:05.598Z,12.20
2019-05-02T03:25:50.743Z,12.30
2019-05-02T03:28:28.427Z,12.10
2019-05-02T03:31:23.955Z,12.20
2019-05-02T03:33:56.229Z,12.20
2019-05-02T03:36:36.898Z,12.20
2019-05-02T03:39:17.615Z,12.60
2019-05-02T03:42:02.903Z,12.50
2019-05-02T03:44:40.412Z,12.50
2019-05-02T03:47:21.116Z,12.30
2019-05-02T03:50:02.143Z,12.30
2019-05-02T03:52:46.221Z,12.30
2019-05-02T03:55:30.925Z,12.50
2019-05-02T03:58:14.356Z,12.60
2019-05-02T04:01:00.850Z,12.70
2019-05-02T04:03:41.015Z,12.50
2019-05-02T04:06:20.939Z,12.40
2019-05-02T04:09:01.714Z,12.60
2019-05-02T04:11:42.248Z,12.90
2019-05-02T04:14:36.792Z,13.00
2019-05-02T04:17:05.434Z,12.90
2019-05-02T04:19:46.581Z,12.70
2019-05-02T04:22:27.010Z,12.80
2019-05-02T04:25:08.152Z,12.70
2019-05-02T04:27:48.747Z,12.60
2019-05-02T04:30:29.484Z,12.70
2019-05-02T04:33:10.395Z,13.10
2019-05-02T04:35:51.026Z,12.80
2019-05-02T04:38:44.608Z,13.00
2019-05-02T04:41:18.834Z,13.10
2019-05-02T04:44:01.187Z,13.10
2019-05-02T04:46:39.793Z,13.00
2019-05-02T04:49:32.843Z,13.60
2019-05-02T04:52:10.481Z,13.10
2019-05-02T04:54:48.582Z,13.40
2019-05-02T04:57:36.925Z,13.60
2019-05-02T05:00:11.932Z,13.30
2019-05-02T05:02:53.276Z,13.90
2019-05-02T05:05:34.522Z,13.70
2019-05-02T05:08:17.520Z,13.30
2019-05-02T05:10:59.223Z,13.70
2019-05-02T05:13:40.078Z,14.10
2019-05-02T05:16:20.699Z,13.90
2019-05-02T05:19:01.108Z,13.70
2019-05-02T05:21:41.933Z,13.50
2019-05-02T05:24:27.980Z,13.80
2019-05-02T05:27:13.178Z,13.40
2019-05-02T05:29:58.389Z,13.90
2019-05-02T05:32:34.180Z,13.70
2019-05-02T05:35:14.882Z,13.70
2019-05-02T05:37:57.254Z,13.60
2019-05-02T05:40:38.174Z,13.60
2019-05-02T05:43:20.577Z,13.60
2019-05-02T05:46:09.347Z,13.50
2019-05-02T05:48:43.005Z,13.10
2019-05-02T05:51:23.841Z,13.10
2019-05-02T05:54:04.639Z,13.10
2019-05-02T05:56:45.624Z,12.70
2019-05-02T05:59:28.165Z,12.90
2019-05-02T06:02:13.126Z,13.40
2019-05-02T06:04:55.203Z,12.80
2019-05-02T06:07:41.793Z,13.00
2019-05-02T06:10:17.964Z,13.50
2019-05-02T06:12:58.920Z,13.20
2019-05-02T06:15:40.614Z,13.40
2019-05-02T06:18:20.923Z,13.10
2019-05-02T06:21:03.308Z,13.20
2019-05-02T06:23:44.746Z,13.40
2019-05-02T06:26:25.785Z,13.90
2019-05-02T06:29:06.823Z,13.40
2019-05-02T06:31:47.645Z,13.30
2019-05-02T06:34:28.230Z,13.40
2019-05-02T06:37:13.440Z,13.00
2019-05-02T06:39:51.807Z,12.70
2019-05-02T06:42:34.504Z,13.50
2019-05-02T06:45:15.521Z,13.30
2019-05-02T06:47:55.921Z,13.10
2019-05-02T06:50:38.959Z,13.10
2019-05-02T06:53:19.514Z,13.40
2019-05-02T06:56:00.304Z,14.10
2019-05-02T06:58:42.089Z,14.00
2019-05-02T07:01:23.658Z,14.10
2019-05-02T07:04:04.563Z,13.80
2019-05-02T07:06:57.630Z,13.30
2019-05-02T07:09:39.847Z,13.10
2019-05-02T07:12:14.733Z,13.00
2019-05-02T07:14:56.143Z,13.10
2019-05-02T07:20:30.378Z,13.50
2019-05-02T07:23:16.365Z,12.80
2019-05-02T07:25:53.642Z,13.30
2019-05-02T07:28:34.370Z,13.40
2019-05-02T07:31:14.953Z,12.90
2019-05-02T07:33:55.888Z,12.90
2019-05-02T07:36:38.375Z,13.30
2019-05-02T07:39:19.700Z,13.20
2019-05-02T07:42:05.339Z,13.80
2019-05-02T07:44:42.449Z,13.80
2019-05-02T07:47:23.317Z,13.20
2019-05-02T07:50:05.298Z,13.40
2019-05-02T07:52:46.978Z,13.10
2019-05-02T07:55:30.531Z,13.30
2019-05-02T07:58:10.488Z,13.50
2019-05-02T08:00:52.544Z,13.30
2019-05-02T08:03:34.823Z,13.40
2019-05-02T08:06:15.735Z,13.30
2019-05-02T08:08:56.394Z,13.70
2019-05-02T08:11:38.291Z,13.60
2019-05-02T08:14:18.862Z,13.10
2019-05-02T08:17:05.642Z,13.30
2019-05-02T08:19:41.746Z,13.00
2019-05-02T08:22:23.377Z,13.10
2019-05-02T08:25:03.918Z,13.40
2019-05-02T08:27:46.202Z,13.30
2019-05-02T08:30:28.938Z,13.30
2019-05-02T08:33:09.529Z,13.40
2019-05-02T08:35:50.254Z,13.70
2019-05-02T08:38:31.342Z,13.30
2019-05-02T08:41:12.354Z,13.30
2019-05-02T08:43:53.345Z,13.50
2019-05-02T08:46:33.876Z,13.40
2019-05-02T08:49:18.730Z,13.60
2019-05-02T08:51:56.363Z,13.20
2019-05-02T08:54:37.007Z,13.20
2019-05-02T08:57:17.466Z,12.90
2019-05-02T09:00:00.187Z,13.00
2019-05-02T09:02:42.029Z,12.90
2019-05-02T09:05:23.362Z,12.90
2019-05-02T09:08:04.017Z,12.80
2019-05-02T09:10:45.216Z,13.10
2019-05-02T09:13:29.156Z,13.10
2019-05-02T09:16:08.269Z,13.00
2019-05-02T09:18:51.910Z,12.60
2019-05-02T09:21:35.844Z,12.50
2019-05-02T09:24:20.930Z,12.80
2019-05-02T09:26:56.805Z,13.10
2019-05-02T09:29:41.618Z,13.00
2019-05-02T09:32:22.699Z,13.00
2019-05-02T09:35:02.126Z,13.10
2019-05-02T09:37:49.876Z,12.80
2019-05-02T09:40:37.646Z,12.80
2019-05-02T09:43:29.387Z,12.40
2019-05-02T09:46:16.645Z,12.70
2019-05-02T09:49:09.661Z,13.20
2019-05-02T09:51:59.179Z,13.40
2019-05-02T09:54:46.151Z,13.20
2019-05-02T09:57:32.964Z,13.30
2019-05-02T10:00:59.297Z,13.00
2019-05-02T10:03:47.129Z,13.20
2019-05-02T10:06:35.003Z,13.20
2019-05-02T10:09:24.337Z,14.00
2019-05-02T10:12:12.403Z,13.80
2019-05-02T10:15:02.223Z,13.50
2019-05-02T10:17:51.777Z,13.40
2019-05-02T10:20:36.323Z,13.40
2019-05-02T10:23:03.140Z,13.40
2019-05-02T10:25:38.429Z,13.40
2019-05-02T10:28:02.123Z,13.30
2019-05-02T10:30:35.517Z,12.90
2019-05-02T10:33:02.916Z,13.30
2019-05-02T10:35:40.354Z,13.30
2019-05-02T10:38:09.438Z,13.30
2019-05-02T10:40:36.241Z,13.10
2019-05-02T10:43:05.334Z,13.10
2019-05-02T10:45:34.044Z,13.20
2019-05-02T10:48:02.677Z,13.10
2019-05-02T10:50:32.955Z,13.10
2019-05-02T10:53:05.387Z,13.00
2019-05-02T10:55:33.228Z,13.10
2019-05-02T10:58:02.036Z,13.10
2019-05-02T11:00:32.618Z,13.50
2019-05-02T11:03:02.750Z,13.10
2019-05-02T11:05:32.676Z,13.30
2019-05-02T11:08:04.840Z,13.40
2019-05-02T11:10:32.341Z,13.40
2019-05-02T11:13:02.541Z,13.50
2019-05-02T11:15:48.617Z,13.50
2019-05-02T11:18:18.698Z,13.30
2019-05-02T11:20:47.130Z,13.40
2019-05-02T11:23:15.617Z,13.50
2019-05-02T11:25:44.097Z,13.40
2019-05-02T11:28:12.574Z,13.40
2019-05-02T11:30:42.693Z,13.50
2019-05-02T11:33:13.430Z,13.40
2019-05-02T11:35:48.781Z,13.00
2019-05-02T11:38:13.639Z,13.10
2019-05-02T11:40:42.620Z,13.40
2019-05-02T11:43:11.573Z,13.70
2019-05-02T11:45:42.398Z,13.70
2019-05-02T11:48:11.941Z,13.40
2019-05-02T11:50:42.245Z,13.40
2019-05-02T11:53:24.706Z,13.30
2019-05-02T11:55:41.975Z,13.40
2019-05-02T11:58:12.559Z,13.70
2019-05-02T12:00:45.339Z,13.70
2019-05-02T12:03:32.417Z,13.70
2019-05-02T12:05:58.450Z,13.50
2019-05-02T12:08:26.975Z,13.30
2019-05-02T12:10:55.414Z,13.50
2019-05-02T12:13:23.897Z,13.50
2019-05-02T12:15:52.629Z,13.90
2019-05-02T12:18:23.149Z,14.30
2019-05-02T12:20:51.966Z,14.10
2019-05-02T12:23:22.582Z,14.60
2019-05-02T12:25:52.029Z,14.50
2019-05-02T12:28:22.759Z,15.10
2019-05-02T12:30:51.941Z,15.70
2019-05-02T12:33:22.345Z,15.60
2019-05-02T12:35:52.484Z,15.40
2019-05-02T12:38:24.078Z,15.80
2019-05-02T12:40:52.508Z,15.80
2019-05-02T12:43:22.914Z,15.70
2019-05-02T12:45:52.823Z,15.30
2019-05-02T12:48:21.981Z,14.80
2019-05-02T12:50:52.820Z,14.90
2019-05-02T12:53:21.906Z,14.80
2019-05-02T12:55:52.749Z,14.90
2019-05-02T12:58:21.863Z,15.50
2019-05-02T13:00:52.860Z,15.60
2019-05-02T13:03:37.040Z,15.90
2019-05-02T13:06:05.799Z,15.90
2019-05-02T13:08:35.917Z,15.40
2019-05-02T13:11:18.052Z,15.20
2019-05-02T13:13:46.553Z,15.30
2019-05-02T13:16:15.397Z,14.80
2019-05-02T13:18:44.102Z,14.90
2019-05-02T13:21:16.827Z,15.20
2019-05-02T13:23:46.350Z,15.60
2019-05-02T13:26:19.712Z,15.70
2019-05-02T13:28:45.398Z,15.80
2019-05-02T13:31:22.410Z,15.40
2019-05-02T13:33:55.510Z,15.30
2019-05-02T13:36:47.077Z,15.60
2019-05-02T13:39:33.120Z,15.40
2019-05-02T13:42:01.768Z,15.30
2019-05-02T13:44:32.638Z,15.20
2019-05-02T13:47:02.742Z,15.60
2019-05-02T13:49:32.431Z,15.40
2019-05-02T13:52:02.454Z,15.60
2019-05-02T13:54:32.990Z,15.40
2019-05-02T13:57:03.079Z,15.10
2019-05-02T13:59:33.615Z,15.20
2019-05-02T14:02:02.853Z,15.00
2019-05-02T14:04:32.663Z,14.80
2019-05-02T14:07:03.019Z,14.70
2019-05-02T14:09:33.065Z,14.80
2019-05-02T14:12:11.993Z,14.70
2019-05-02T14:14:42.374Z,15.00
2019-05-02T14:17:11.698Z,15.20
2019-05-02T14:19:42.000Z,15.10
2019-05-02T14:22:10.343Z,15.20
2019-05-02T14:24:38.804Z,15.20
2019-05-02T14:27:11.681Z,15.20
2019-05-02T14:29:37.399Z,15.30
2019-05-02T14:32:19.713Z,15.70
2019-05-02T14:34:56.846Z,15.50
2019-05-02T14:37:25.541Z,15.50
2019-05-02T14:39:55.629Z,15.00
2019-05-02T14:42:26.174Z,15.20
2019-05-02T14:45:11.912Z,15.10
2019-05-02T14:47:24.508Z,15.50
2019-05-02T14:49:56.743Z,15.50
2019-05-02T14:52:23.165Z,15.30
2019-05-02T14:54:52.241Z,15.60
2019-05-02T14:57:26.941Z,15.40
2019-05-02T14:59:59.163Z,15.30
2019-05-02T15:02:28.871Z,15.10
2019-05-02T15:04:56.820Z,14.90
2019-05-02T15:07:26.792Z,15.00
2019-05-02T15:09:57.221Z,15.00
2019-05-02T15:12:25.505Z,15.30
2019-05-02T15:14:57.373Z,15.40
2019-05-02T15:17:27.962Z,15.10
2019-05-02T15:19:54.245Z,15.30
2019-05-02T15:22:22.902Z,15.50
2019-05-02T15:24:53.255Z,15.70
2019-05-02T15:27:22.229Z,15.90
2019-05-02T15:29:53.962Z,15.60
2019-05-02T15:32:28.209Z,15.50
2019-05-02T15:34:58.308Z,15.70
2019-05-02T15:37:27.418Z,15.80
2019-05-02T15:42:25.997Z,15.50
2019-05-02T15:44:57.090Z,15.60
2019-05-02T15:47:24.809Z,15.40
2019-05-02T15:49:53.282Z,15.50
2019-05-02T15:52:29.346Z,15.70
2019-05-02T15:55:00.030Z,16.10
2019-05-02T15:57:27.954Z,15.60
2019-05-02T15:59:56.372Z,15.00
2019-05-02T16:02:26.839Z,15.20
2019-05-02T16:04:57.121Z,15.00
2019-05-02T16:07:25.769Z,15.50
2019-05-02T16:09:57.235Z,15.70
2019-05-02T16:12:27.277Z,15.70
2019-05-02T16:14:54.572Z,15.80
2019-05-02T16:17:25.766Z,15.80
2019-05-02T16:19:58.218Z,15.60
2019-05-02T16:22:26.372Z,15.30
2019-05-02T16:24:56.615Z,15.40
2019-05-02T16:27:44.277Z,15.70
2019-05-02T16:30:15.823Z,15.80
2019-05-02T16:32:48.881Z,15.30
2019-05-02T16:35:19.042Z,15.00
2019-05-02T16:37:52.322Z,15.00
2019-05-02T16:40:22.074Z,14.90
2019-05-02T16:42:49.466Z,14.80
2019-05-02T16:45:18.400Z,14.70
2019-05-02T16:47:49.639Z,14.80
2019-05-02T16:50:18.657Z,14.90
2019-05-02T16:52:47.565Z,15.10
2019-05-02T16:55:21.087Z,15.40
2019-05-02T16:57:47.026Z,15.50
2019-05-02T17:00:17.688Z,15.40
2019-05-02T17:02:46.547Z,15.30
2019-05-02T17:05:15.390Z,15.50
2019-05-02T17:07:45.591Z,15.20
2019-05-02T17:10:18.682Z,14.80
2019-05-02T17:12:52.191Z,14.40
2019-05-02T17:15:19.223Z,14.20
2019-05-02T17:17:47.694Z,14.10
2019-05-02T17:20:16.826Z,14.10
2019-05-02T17:22:50.065Z,14.20
2019-05-02T17:25:15.673Z,14.50
2019-05-02T17:27:44.092Z,14.20
2019-05-02T17:30:12.897Z,14.00
2019-05-02T17:32:41.643Z,13.90
2019-05-02T17:35:12.283Z,13.70
2019-05-02T17:37:48.680Z,13.80
2019-05-02T17:40:12.344Z,13.70
2019-05-02T17:42:44.435Z,13.70
2019-05-02T17:45:12.866Z,13.60
2019-05-02T17:47:41.313Z,13.70
2019-05-02T17:50:17.797Z,14.10
2019-05-02T17:52:43.753Z,13.70
2019-05-02T17:55:12.817Z,13.80
2019-05-02T17:57:41.995Z,13.70
2019-05-02T18:00:16.646Z,13.60
2019-05-02T18:02:47.035Z,13.50
2019-05-02T18:05:13.429Z,13.60
2019-05-02T18:07:41.926Z,13.60
2019-05-02T18:10:16.792Z,13.70
2019-05-02T18:12:42.785Z,13.70
2019-05-02T18:15:11.970Z,13.60
2019-05-02T18:17:42.627Z,13.60
2019-05-02T18:20:12.491Z,13.60
2019-05-02T18:22:45.409Z,13.60
2019-05-02T18:25:11.721Z,13.80
2019-05-02T18:27:41.809Z,13.60
2019-05-02T18:30:12.785Z,13.80
2019-05-02T18:32:42.007Z,13.70
2019-05-02T18:35:11.744Z,13.70
2019-05-02T18:37:42.837Z,13.70
2019-05-02T18:40:11.915Z,14.10
2019-05-02T18:42:42.292Z,14.10
2019-05-02T18:45:13.696Z,14.30
2019-05-02T18:47:42.324Z,14.40
2019-05-02T18:50:28.359Z,14.20
2019-05-02T18:52:56.797Z,13.80
2019-05-02T18:55:26.024Z,13.90
2019-05-02T18:57:57.068Z,13.70
2019-05-02T19:00:27.935Z,13.90
2019-05-02T19:02:56.609Z,13.70
2019-05-02T19:05:26.497Z,13.60
2019-05-02T19:07:56.543Z,13.60
2019-05-02T19:10:25.126Z,13.50
2019-05-02T19:12:56.189Z,13.40
2019-05-02T19:15:24.171Z,13.40
2019-05-02T19:17:52.958Z,13.30
2019-05-02T19:20:24.625Z,13.40
2019-05-02T19:22:56.808Z,13.40
2019-05-02T19:25:23.217Z,13.30
2019-05-02T19:27:57.669Z,13.40
2019-05-02T19:30:27.291Z,13.50
2019-05-02T19:32:57.814Z,13.50
2019-05-02T19:35:26.057Z,13.70
2019-05-02T19:37:55.080Z,13.40
2019-05-02T19:40:28.234Z,13.40
2019-05-02T19:42:57.364Z,13.40
2019-05-02T19:45:27.022Z,13.40
2019-05-02T19:47:57.682Z,13.40
2019-05-02T19:50:38.960Z,13.80
2019-05-02T19:53:04.293Z,13.70
2019-05-02T19:55:32.282Z,13.60
2019-05-02T19:58:04.809Z,13.50
2019-05-02T20:00:31.814Z,13.50
2019-05-02T20:03:01.806Z,13.50
2019-05-02T20:05:32.274Z,13.50
2019-05-02T20:08:02.502Z,13.50
2019-05-02T20:10:32.199Z,13.60
2019-05-02T20:13:02.876Z,13.50
2019-05-02T20:15:32.842Z,13.50
2019-05-02T20:18:04.760Z,13.60
2019-05-02T20:20:40.474Z,14.00
2019-05-02T20:23:15.419Z,13.70
2019-05-02T20:25:40.162Z,13.50
2019-05-02T20:28:08.676Z,13.60
2019-05-02T20:30:37.175Z,15.30
2019-05-02T20:33:05.677Z,14.80
2019-05-02T20:35:34.138Z,14.70
2019-05-02T20:38:02.878Z,14.80
2019-05-02T20:40:36.445Z,14.70
2019-05-02T20:43:05.977Z,14.50
2019-05-02T20:45:34.649Z,14.30
2019-05-02T20:48:03.097Z,14.30
2019-05-02T20:50:31.917Z,13.90
2019-05-02T20:53:01.948Z,13.80
2019-05-02T20:55:32.290Z,13.40
2019-05-02T20:58:02.170Z,13.20
2019-05-02T21:00:32.395Z,13.10
2019-05-02T21:03:02.632Z,13.20
2019-05-02T21:05:32.968Z,13.40
2019-05-02T21:08:03.069Z,14.30
2019-05-02T21:10:36.318Z,14.20
2019-05-02T21:13:05.277Z,14.30
2019-05-02T21:15:33.692Z,13.30
2019-05-02T21:18:02.409Z,13.40
2019-05-02T21:20:32.528Z,13.30
2019-05-02T21:23:01.957Z,13.30
2019-05-02T21:25:32.426Z,13.80
2019-05-02T21:28:02.701Z,14.00
2019-05-02T21:30:32.262Z,13.30
2019-05-02T21:33:02.629Z,13.30
2019-05-02T21:35:31.894Z,13.20
2019-05-02T21:38:00.624Z,13.30
2019-05-02T21:40:32.689Z,13.20
2019-05-02T21:43:02.465Z,12.90
2019-05-02T21:45:31.704Z,13.00
2019-05-02T21:48:02.157Z,13.30
2019-05-02T21:50:42.667Z,13.60
2019-05-02T21:53:15.471Z,13.20
2019-05-02T21:55:45.553Z,13.40
2019-05-02T21:58:13.977Z,13.50
2019-05-02T22:00:47.177Z,13.00
2019-05-02T22:03:16.216Z,12.90
2019-05-02T22:05:44.714Z,12.90
2019-05-02T22:08:13.176Z,12.60
2019-05-02T22:10:42.661Z,12.80
2019-05-02T22:13:11.148Z,13.00
2019-05-02T22:15:39.590Z,12.70
2019-05-02T22:18:08.289Z,12.60
2019-05-02T22:20:37.046Z,12.60
2019-05-02T22:23:05.470Z,12.40
2019-05-02T22:25:33.910Z,12.40
2019-05-02T22:28:02.591Z,12.70
2019-05-02T22:30:32.332Z,12.60
2019-05-02T22:33:02.774Z,13.00
2019-05-02T22:35:30.950Z,12.70
2019-05-02T22:38:03.995Z,12.70
2019-05-02T22:40:32.682Z,12.50
2019-05-02T22:43:01.920Z,12.40
2019-05-02T22:45:32.269Z,12.50
2019-05-02T22:48:02.518Z,12.30
2019-05-02T22:50:32.550Z,12.30
2019-05-02T22:53:01.020Z,12.20
2019-05-02T22:55:29.474Z,12.70
2019-05-02T22:57:57.896Z,12.40
2019-05-02T23:00:27.389Z,12.40
2019-05-02T23:02:56.063Z,12.30
2019-05-02T23:05:25.753Z,12.20
2019-05-02T23:07:54.214Z,12.20
2019-05-02T23:10:22.900Z,12.10
2019-05-02T23:12:51.751Z,12.00
2019-05-02T23:15:21.676Z,12.00
2019-05-02T23:17:52.181Z,11.90
2019-05-02T23:20:21.807Z,12.00
2019-05-02T23:22:52.399Z,12.00
2019-05-02T23:25:39.169Z,11.80
2019-05-02T23:28:12.041Z,11.80
2019-05-02T23:30:42.347Z,12.10
2019-05-02T23:33:10.642Z,11.90
2019-05-02T23:35:39.074Z,12.30
2019-05-02T23:38:07.561Z,11.70
2019-05-02T23:40:36.013Z,12.10
2019-05-02T23:43:04.759Z,11.90
2019-05-02T23:45:33.209Z,11.80
2019-05-02T23:48:02.196Z,11.90
2019-05-02T23:50:30.701Z,11.90
2019-05-02T23:53:02.369Z,11.80
2019-05-02T23:55:32.187Z,11.70
2019-05-02T23:58:02.822Z,11.70
